createdAt,value
2019-04-26T00:00:39.433Z,1.00
2019-04-26T00:03:07.971Z,1.00
2019-04-26T00:05:36.431Z,1.02
2019-04-26T00:08:03.843Z,0.80
2019-04-26T00:10:34.992Z,0.90
2019-04-26T00:13:06.145Z,0.90
2019-04-26T00:15:46.779Z,0.98
2019-04-26T00:18:13.179Z,0.80
2019-04-26T00:20:39.563Z,0.80
2019-04-26T00:23:05.935Z,1.10
2019-04-26T00:25:52.206Z,1.00
2019-04-26T00:28:21.177Z,0.90
2019-04-26T00:30:47.503Z,1.00
2019-04-26T00:33:15.173Z,0.95
2019-04-26T00:35:47.605Z,0.80
2019-04-26T00:38:09.824Z,1.00
2019-04-26T00:40:36.792Z,0.90
2019-04-26T00:43:03.220Z,0.95
2019-04-26T00:45:33.073Z,1.00
2019-04-26T00:48:00.256Z,1.10
2019-04-26T00:50:26.718Z,1.12
2019-04-26T00:52:54.132Z,1.00
2019-04-26T00:55:21.789Z,1.20
2019-04-26T00:57:48.889Z,1.10
2019-04-26T01:00:17.967Z,1.30
2019-04-26T01:02:46.448Z,1.10
2019-04-26T01:05:12.709Z,1.10
2019-04-26T01:07:39.580Z,1.20
2019-04-26T01:10:06.034Z,1.10
2019-04-26T01:12:32.489Z,1.27
2019-04-26T01:14:58.777Z,1.00
2019-04-26T01:17:25.034Z,1.12
2019-04-26T01:19:53.082Z,1.05
2019-04-26T01:22:25.799Z,1.10
2019-04-26T01:24:54.074Z,1.20
2019-04-26T01:27:25.534Z,1.20
2019-04-26T01:29:55.716Z,1.25
2019-04-26T01:32:22.553Z,1.10
2019-04-26T01:34:49.713Z,1.12
2019-04-26T01:37:17.087Z,1.10
2019-04-26T01:39:49.158Z,1.12
2019-04-26T01:42:27.008Z,1.00
2019-04-26T01:45:17.358Z,1.15
2019-04-26T01:47:46.047Z,1.10
2019-04-26T01:50:12.873Z,1.30
2019-04-26T01:52:42.162Z,1.00
2019-04-26T01:55:09.058Z,1.22
2019-04-26T01:57:35.824Z,1.12
2019-04-26T02:00:06.282Z,1.15
2019-04-26T02:02:40.232Z,1.20
2019-04-26T02:05:14.228Z,1.10
2019-04-26T02:07:40.901Z,1.00
2019-04-26T02:10:16.891Z,1.20
2019-04-26T02:12:45.374Z,0.90
2019-04-26T02:15:11.850Z,1.12
2019-04-26T02:17:39.471Z,1.10
2019-04-26T02:20:07.747Z,1.12
2019-04-26T02:22:47.144Z,1.10
2019-04-26T02:25:13.691Z,1.25
2019-04-26T02:27:40.153Z,1.07
2019-04-26T02:30:07.795Z,0.95
2019-04-26T02:32:36.949Z,1.20
2019-04-26T02:35:04.932Z,1.10
2019-04-26T02:37:32.764Z,1.15
2019-04-26T02:40:00.258Z,1.00
2019-04-26T02:42:39.382Z,0.90
2019-04-26T02:45:30.910Z,1.10
2019-04-26T02:48:18.264Z,1.10
2019-04-26T02:51:03.687Z,1.20
2019-04-26T02:53:52.057Z,1.00
2019-04-26T02:56:24.940Z,1.17
2019-04-26T02:58:57.999Z,1.10
2019-04-26T03:01:26.376Z,1.10
2019-04-26T03:03:53.655Z,1.10
2019-04-26T03:06:20.308Z,1.00
2019-04-26T03:08:47.214Z,0.93
2019-04-26T03:11:17.824Z,1.10
2019-04-26T03:13:49.467Z,1.12
2019-04-26T03:16:27.272Z,1.20
2019-04-26T03:19:05.457Z,1.30
2019-04-26T03:21:43.294Z,1.30
2019-04-26T03:24:22.458Z,1.32
2019-04-26T03:27:04.964Z,1.10
2019-04-26T03:29:41.990Z,1.40
2019-04-26T03:32:27.864Z,1.15
2019-04-26T03:34:59.824Z,1.25
2019-04-26T03:37:36.558Z,1.42
2019-04-26T03:40:28.184Z,1.50
2019-04-26T03:43:25.857Z,1.37
2019-04-26T03:46:23.633Z,1.50
2019-04-26T03:48:59.734Z,1.40
2019-04-26T03:51:46.396Z,1.40
2019-04-26T03:54:22.432Z,1.25
2019-04-26T03:56:56.910Z,1.42
2019-04-26T03:59:42.167Z,1.80
2019-04-26T04:02:30.864Z,1.67
2019-04-26T04:05:12.034Z,2.00
2019-04-26T04:07:47.285Z,2.00
2019-04-26T04:10:15.997Z,2.00
2019-04-26T04:12:51.739Z,1.90
2019-04-26T04:15:28.525Z,1.70
2019-04-26T04:18:03.279Z,2.10
2019-04-26T04:20:44.920Z,2.37
2019-04-26T04:23:30.992Z,2.10
2019-04-26T04:25:59.593Z,2.22
2019-04-26T04:28:52.579Z,2.15
2019-04-26T04:31:58.699Z,1.95
2019-04-26T04:34:54.640Z,2.15
2019-04-26T04:38:02.229Z,2.00
2019-04-26T04:41:09.223Z,2.00
2019-04-26T04:43:42.792Z,2.50
2019-04-26T04:46:49.705Z,2.30
2019-04-26T04:49:21.355Z,2.58
2019-04-26T04:51:51.708Z,2.30
2019-04-26T04:54:30.567Z,2.25
2019-04-26T04:57:18.996Z,2.50
2019-04-26T05:00:20.913Z,3.47
2019-04-26T05:03:10.455Z,4.03
2019-04-26T05:06:07.544Z,4.58
2019-04-26T05:08:45.518Z,4.58
2019-04-26T05:11:19.615Z,5.58
2019-04-26T05:13:59.203Z,5.60
2019-04-26T05:16:55.230Z,5.80
2019-04-26T05:19:28.695Z,5.72
2019-04-26T05:22:32.531Z,6.28
2019-04-26T05:25:16.612Z,5.90
2019-04-26T05:27:57.577Z,5.60
2019-04-26T05:31:06.432Z,5.60
2019-04-26T05:33:36.828Z,5.00
2019-04-26T05:36:19.635Z,5.40
2019-04-26T05:39:02.035Z,5.78
2019-04-26T05:42:25.020Z,5.92
2019-04-26T05:45:20.769Z,6.17
2019-04-26T05:48:35.564Z,5.55
2019-04-26T05:51:43.131Z,5.85
2019-04-26T05:54:58.829Z,5.47
2019-04-26T05:57:30.822Z,4.20
2019-04-26T06:00:35.922Z,3.77
2019-04-26T06:03:40.285Z,4.08
2019-04-26T06:06:21.607Z,5.00
2019-04-26T06:09:20.546Z,5.00
2019-04-26T06:11:54.618Z,4.55
2019-04-26T06:14:44.153Z,4.35
2019-04-26T06:17:51.743Z,4.08
2019-04-26T06:20:23.561Z,4.55
2019-04-26T06:23:08.935Z,4.00
2019-04-26T06:25:55.681Z,3.60
2019-04-26T06:28:44.058Z,4.10
2019-04-26T06:31:14.274Z,3.83
2019-04-26T06:33:59.504Z,3.52
2019-04-26T06:36:31.175Z,3.62
2019-04-26T06:39:11.559Z,3.00
2019-04-26T06:42:00.787Z,3.40
2019-04-26T06:44:32.942Z,3.50
2019-04-26T06:47:28.615Z,2.80
2019-04-26T06:50:23.115Z,4.42
2019-04-26T06:52:59.305Z,4.28
2019-04-26T06:55:30.691Z,4.40
2019-04-26T06:58:22.421Z,3.87
2019-04-26T07:01:15.581Z,4.70
2019-04-26T07:04:21.644Z,5.25
2019-04-26T07:07:07.419Z,7.45
2019-04-26T07:09:38.085Z,9.95
2019-04-26T07:12:28.253Z,9.15
2019-04-26T07:15:02.270Z,9.63
2019-04-26T07:18:02.167Z,6.65
2019-04-26T07:20:36.286Z,4.90
2019-04-26T07:23:23.653Z,4.75
2019-04-26T07:25:54.465Z,4.40
2019-04-26T07:28:47.277Z,3.83
2019-04-26T07:31:20.423Z,3.20
2019-04-26T07:33:58.020Z,2.80
2019-04-26T07:36:51.781Z,2.90
2019-04-26T07:39:47.888Z,2.70
2019-04-26T07:42:43.818Z,2.45
2019-04-26T07:45:21.988Z,2.45
2019-04-26T07:48:18.020Z,2.30
2019-04-26T07:51:21.592Z,2.08
2019-04-26T07:54:22.544Z,3.00
2019-04-26T07:57:23.526Z,3.00
2019-04-26T08:00:18.017Z,2.67
2019-04-26T08:03:10.891Z,2.30
2019-04-26T08:05:53.475Z,2.50
2019-04-26T08:08:22.757Z,2.45
2019-04-26T08:10:55.876Z,2.75
2019-04-26T08:13:25.310Z,2.67
2019-04-26T08:18:59.612Z,2.17
2019-04-26T08:21:31.944Z,1.80
2019-04-26T08:24:07.900Z,2.00
2019-04-26T08:26:38.119Z,1.90
2019-04-26T08:29:07.039Z,1.50
2019-04-26T08:31:37.272Z,2.08
2019-04-26T08:34:08.691Z,1.98
2019-04-26T08:36:38.730Z,1.90
2019-04-26T08:39:16.693Z,2.27
2019-04-26T08:41:45.363Z,2.30
2019-04-26T08:44:26.381Z,2.20
2019-04-26T08:47:16.723Z,2.17
2019-04-26T08:49:43.120Z,2.92
2019-04-26T08:52:14.489Z,2.87
2019-04-26T08:54:45.836Z,3.10
2019-04-26T08:57:13.200Z,3.00
2019-04-26T08:59:49.413Z,3.75
2019-04-26T09:02:21.165Z,3.70
2019-04-26T09:05:07.082Z,3.77
2019-04-26T09:07:37.952Z,3.40
2019-04-26T09:10:11.348Z,3.10
2019-04-26T09:12:39.286Z,3.60
2019-04-26T09:15:11.463Z,3.40
2019-04-26T09:17:37.937Z,3.70
2019-04-26T09:20:07.905Z,3.87
2019-04-26T09:22:56.625Z,4.28
2019-04-26T09:25:25.781Z,3.90
2019-04-26T09:27:54.132Z,3.50
2019-04-26T09:30:33.366Z,3.00
2019-04-26T09:32:52.728Z,2.52
2019-04-26T09:35:24.917Z,2.40
2019-04-26T09:37:51.439Z,2.47
2019-04-26T09:40:21.612Z,2.30
2019-04-26T09:42:48.080Z,2.27
2019-04-26T09:45:22.052Z,2.10
2019-04-26T09:47:50.370Z,2.25
2019-04-26T09:50:18.726Z,2.60
2019-04-26T09:52:46.999Z,2.20
2019-04-26T09:55:13.750Z,2.60
2019-04-26T09:57:40.386Z,2.50
2019-04-26T10:00:10.312Z,2.30
2019-04-26T10:02:38.829Z,2.30
2019-04-26T10:05:08.043Z,1.75
2019-04-26T10:07:37.524Z,1.60
2019-04-26T10:10:03.685Z,1.70
2019-04-26T10:12:34.990Z,1.62
2019-04-26T10:15:05.869Z,2.00
2019-04-26T10:17:33.540Z,2.10
2019-04-26T10:19:59.926Z,2.27
2019-04-26T10:22:28.215Z,2.50
2019-04-26T10:24:54.597Z,2.70
2019-04-26T10:27:21.056Z,2.70
2019-04-26T10:29:47.589Z,3.50
2019-04-26T10:32:14.247Z,3.12
2019-04-26T10:34:42.819Z,3.62
2019-04-26T10:37:09.008Z,3.30
2019-04-26T10:39:36.999Z,3.98
2019-04-26T10:42:03.558Z,3.60
2019-04-26T10:44:29.948Z,4.35
2019-04-26T10:46:59.772Z,3.87
2019-04-26T10:49:41.293Z,3.90
2019-04-26T10:52:11.944Z,4.40
2019-04-26T10:54:44.586Z,4.30
2019-04-26T10:57:21.130Z,4.45
2019-04-26T10:59:55.344Z,4.53
2019-04-26T11:02:21.910Z,4.60
2019-04-26T11:04:48.398Z,5.30
2019-04-26T11:07:14.827Z,4.20
2019-04-26T11:09:41.288Z,4.10
2019-04-26T11:12:11.380Z,4.10
2019-04-26T11:14:37.955Z,4.30
2019-04-26T11:17:06.455Z,4.42
2019-04-26T11:19:35.464Z,4.22
2019-04-26T11:22:01.174Z,4.78
2019-04-26T11:24:27.547Z,4.62
2019-04-26T11:26:56.776Z,5.33
2019-04-26T11:29:24.960Z,5.50
2019-04-26T11:31:54.048Z,6.40
2019-04-26T11:34:23.636Z,6.08
2019-04-26T11:36:56.259Z,6.50
2019-04-26T11:39:22.547Z,6.37
2019-04-26T11:41:50.718Z,7.25
2019-04-26T11:44:23.431Z,6.65
2019-04-26T11:46:48.685Z,6.50
2019-04-26T11:49:14.969Z,7.15
2019-04-26T11:51:41.393Z,7.17
2019-04-26T11:54:07.841Z,8.25
2019-04-26T11:56:37.514Z,7.50
2019-04-26T11:59:02.765Z,7.20
2019-04-26T12:01:29.727Z,7.37
2019-04-26T12:04:13.182Z,7.03
2019-04-26T12:06:47.206Z,7.83
2019-04-26T12:09:31.127Z,7.55
2019-04-26T12:12:04.389Z,7.47
2019-04-26T12:14:29.477Z,6.87
2019-04-26T12:16:59.148Z,8.08
2019-04-26T12:19:22.357Z,7.85
2019-04-26T12:21:48.662Z,7.12
2019-04-26T12:24:16.946Z,6.95
2019-04-26T12:26:46.251Z,7.47
2019-04-26T12:29:14.770Z,8.50
2019-04-26T12:31:39.742Z,7.42
2019-04-26T12:34:05.985Z,6.55
2019-04-26T12:36:32.539Z,5.60
2019-04-26T12:39:02.210Z,5.35
2019-04-26T12:41:39.939Z,3.90
2019-04-26T12:43:59.695Z,3.58
2019-04-26T12:46:27.152Z,2.80
2019-04-26T12:48:53.494Z,3.05
2019-04-26T12:51:19.945Z,2.40
2019-04-26T12:53:46.374Z,2.40
2019-04-26T12:56:13.182Z,2.40
2019-04-26T12:58:39.553Z,2.90
2019-04-26T13:01:12.250Z,2.98
2019-04-26T13:03:38.879Z,2.77
2019-04-26T13:06:05.440Z,2.80
2019-04-26T13:08:31.772Z,2.87
2019-04-26T13:11:16.497Z,3.70
2019-04-26T13:14:01.284Z,3.33
2019-04-26T13:16:29.640Z,5.17
2019-04-26T13:18:56.221Z,5.17
2019-04-26T13:21:23.521Z,5.55
2019-04-26T13:23:50.238Z,4.90
2019-04-26T13:26:16.555Z,4.22
2019-04-26T13:28:43.113Z,4.60
2019-04-26T13:31:09.646Z,5.30
2019-04-26T13:33:35.959Z,4.70
2019-04-26T13:36:03.383Z,4.20
2019-04-26T13:38:29.954Z,4.72
2019-04-26T13:40:59.650Z,6.40
2019-04-26T13:43:27.072Z,5.97
2019-04-26T13:45:57.766Z,6.37
2019-04-26T13:48:26.112Z,6.65
2019-04-26T13:51:10.707Z,5.85
2019-04-26T13:53:37.244Z,8.33
2019-04-26T13:56:03.801Z,6.83
2019-04-26T13:58:30.247Z,5.40
2019-04-26T14:00:56.861Z,6.10
2019-04-26T14:03:27.191Z,6.92
2019-04-26T14:05:51.786Z,8.35
2019-04-26T14:08:18.496Z,9.48
2019-04-26T14:10:45.608Z,10.13
2019-04-26T14:13:13.080Z,11.30
2019-04-26T14:15:43.971Z,10.55
2019-04-26T14:18:08.140Z,9.95
2019-04-26T14:20:34.941Z,9.90
2019-04-26T14:23:19.804Z,9.60
2019-04-26T14:25:50.879Z,9.03
2019-04-26T14:28:20.339Z,9.83
2019-04-26T14:30:47.155Z,9.13
2019-04-26T14:33:14.084Z,9.80
2019-04-26T14:35:40.563Z,9.03
2019-04-26T14:38:07.180Z,9.23
2019-04-26T14:40:33.610Z,9.23
2019-04-26T14:43:07.029Z,9.03
2019-04-26T14:45:28.556Z,9.15
2019-04-26T14:47:55.130Z,8.95
2019-04-26T14:50:21.740Z,9.13
2019-04-26T14:52:48.040Z,7.72
2019-04-26T14:55:16.666Z,8.13
2019-04-26T14:57:42.815Z,7.97
2019-04-26T15:00:12.601Z,6.83
2019-04-26T15:02:47.697Z,6.33
2019-04-26T15:05:26.139Z,5.92
2019-04-26T15:07:53.818Z,5.55
2019-04-26T15:10:21.003Z,5.40
2019-04-26T15:12:52.707Z,4.85
2019-04-26T15:15:15.834Z,4.80
2019-04-26T15:17:42.330Z,4.40
2019-04-26T15:20:08.850Z,4.62
2019-04-26T15:22:35.433Z,4.50
2019-04-26T15:25:03.431Z,5.70
2019-04-26T15:27:32.225Z,5.17
2019-04-26T15:30:01.525Z,4.90
2019-04-26T15:32:28.002Z,5.22
2019-04-26T15:34:54.978Z,5.05
2019-04-26T15:37:25.090Z,4.83
2019-04-26T15:40:08.868Z,4.50
2019-04-26T15:43:01.192Z,4.78
2019-04-26T15:45:39.855Z,3.90
2019-04-26T15:48:08.282Z,4.17
2019-04-26T15:50:36.433Z,3.40
2019-04-26T15:53:06.702Z,3.02
2019-04-26T15:55:33.868Z,2.80
2019-04-26T15:58:02.653Z,2.27
2019-04-26T16:00:28.456Z,2.30
2019-04-26T16:02:58.654Z,2.40
2019-04-26T16:05:29.467Z,2.10
2019-04-26T16:07:53.173Z,1.60
2019-04-26T16:10:19.675Z,1.72
2019-04-26T16:12:46.287Z,1.20
2019-04-26T16:15:14.670Z,1.40
2019-04-26T16:17:41.315Z,1.17
2019-04-26T16:20:09.045Z,1.10
2019-04-26T16:22:35.388Z,1.35
2019-04-26T16:25:05.211Z,1.55
2019-04-26T16:27:34.099Z,1.45
2019-04-26T16:30:15.957Z,1.47
2019-04-26T16:33:03.071Z,1.52
2019-04-26T16:35:29.496Z,1.30
2019-04-26T16:37:59.824Z,1.20
2019-04-26T16:40:26.037Z,1.50
2019-04-26T16:42:56.632Z,1.20
2019-04-26T16:45:20.606Z,1.32
2019-04-26T16:47:48.800Z,1.30
2019-04-26T16:50:25.093Z,1.50
2019-04-26T16:52:47.537Z,1.07
2019-04-26T16:55:17.820Z,1.12
2019-04-26T16:57:43.915Z,1.20
2019-04-26T17:00:08.238Z,1.15
2019-04-26T17:02:36.939Z,1.45
2019-04-26T17:05:19.060Z,1.57
2019-04-26T17:07:39.042Z,1.45
2019-04-26T17:10:03.366Z,1.32
2019-04-26T17:12:29.502Z,1.67
2019-04-26T17:14:55.865Z,1.50
2019-04-26T17:17:22.424Z,1.47
2019-04-26T17:19:56.181Z,1.65
2019-04-26T17:22:44.488Z,1.98
2019-04-26T17:25:10.484Z,1.95
2019-04-26T17:27:40.285Z,2.05
2019-04-26T17:30:07.748Z,2.25
2019-04-26T17:32:35.086Z,2.15
2019-04-26T17:35:04.699Z,2.40
2019-04-26T17:37:30.538Z,2.58
2019-04-26T17:39:57.084Z,2.80
2019-04-26T17:42:25.141Z,3.05
2019-04-26T17:44:51.744Z,3.30
2019-04-26T17:47:18.058Z,3.60
2019-04-26T17:49:44.427Z,4.25
2019-04-26T17:52:11.655Z,4.05
2019-04-26T17:54:46.993Z,4.90
2019-04-26T17:57:08.974Z,4.85
2019-04-26T17:59:36.773Z,6.67
2019-04-26T18:02:02.824Z,6.03
2019-04-26T18:04:36.144Z,6.17
2019-04-26T18:07:03.826Z,6.80
2019-04-26T18:09:42.944Z,6.62
2019-04-26T18:12:00.043Z,7.92
2019-04-26T18:14:29.947Z,6.78
2019-04-26T18:16:57.159Z,7.95
2019-04-26T18:19:31.358Z,9.18
2019-04-26T18:22:00.225Z,10.98
2019-04-26T18:24:27.638Z,11.60
2019-04-26T18:26:59.199Z,12.53
2019-04-26T18:29:28.832Z,14.30
2019-04-26T18:31:53.490Z,14.68
2019-04-26T18:34:19.738Z,16.32
2019-04-26T18:36:46.108Z,16.48
2019-04-26T18:39:12.830Z,17.85
2019-04-26T18:41:39.194Z,18.60
2019-04-26T18:44:05.710Z,15.98
2019-04-26T18:46:35.715Z,20.05
2019-04-26T18:49:04.346Z,19.02
2019-04-26T18:51:30.664Z,16.23
2019-04-26T18:54:02.802Z,16.67
2019-04-26T18:56:33.707Z,16.75
2019-04-26T18:58:58.003Z,16.05
2019-04-26T19:01:24.436Z,15.23
2019-04-26T19:03:50.725Z,14.98
2019-04-26T19:06:28.708Z,14.30
2019-04-26T19:08:50.163Z,14.40
2019-04-26T19:11:35.632Z,16.52
2019-04-26T19:14:21.885Z,15.95
2019-04-26T19:16:58.706Z,15.53
2019-04-26T19:19:29.167Z,18.60
2019-04-26T19:21:57.491Z,17.27
2019-04-26T19:24:23.836Z,19.73
2019-04-26T19:26:51.911Z,20.50
2019-04-26T19:29:22.496Z,23.60
2019-04-26T19:31:46.487Z,22.17
2019-04-26T19:34:13.274Z,22.05
2019-04-26T19:36:39.826Z,24.45
2019-04-26T19:39:06.570Z,27.55
2019-04-26T19:41:33.135Z,24.37
2019-04-26T19:43:59.465Z,26.15
2019-04-26T19:46:31.591Z,29.10
2019-04-26T19:49:16.673Z,29.95
2019-04-26T19:51:59.757Z,30.23
2019-04-26T19:54:38.481Z,31.85
2019-04-26T19:57:08.800Z,28.32
2019-04-26T19:59:35.347Z,32.53
2019-04-26T20:02:01.851Z,33.45
2019-04-26T20:04:30.379Z,29.72
2019-04-26T20:06:56.916Z,32.85
2019-04-26T20:09:26.323Z,32.65
2019-04-26T20:11:58.131Z,35.85
2019-04-26T20:14:23.019Z,31.25
2019-04-26T20:16:48.860Z,34.88
2019-04-26T20:19:17.915Z,33.80
2019-04-26T20:21:45.386Z,32.73
2019-04-26T20:24:12.751Z,31.65
2019-04-26T20:26:41.911Z,27.90
2019-04-26T20:29:10.181Z,30.75
2019-04-26T20:31:44.914Z,33.58
2019-04-26T20:34:10.945Z,31.65
2019-04-26T20:36:41.560Z,30.95
2019-04-26T20:39:06.497Z,31.55
2019-04-26T20:41:32.937Z,30.25
2019-04-26T20:44:06.899Z,31.12
2019-04-26T20:46:29.651Z,30.08
2019-04-26T20:48:56.382Z,32.23
2019-04-26T20:51:24.255Z,29.95
2019-04-26T20:53:50.965Z,27.70
2019-04-26T20:56:18.747Z,35.00
2019-04-26T20:59:05.129Z,32.33
2019-04-26T21:01:32.088Z,28.30
2019-04-26T21:03:58.505Z,31.33
2019-04-26T21:06:24.895Z,35.60
2019-04-26T21:08:52.245Z,32.23
2019-04-26T21:11:19.730Z,33.08
2019-04-26T21:13:46.306Z,35.25
2019-04-26T21:16:15.343Z,35.85
2019-04-26T21:18:44.114Z,35.83
2019-04-26T21:21:10.580Z,35.85
2019-04-26T21:23:40.022Z,38.38
2019-04-26T21:26:11.706Z,39.05
2019-04-26T21:28:42.770Z,41.40
2019-04-26T21:31:10.233Z,40.67
2019-04-26T21:33:39.112Z,40.65
2019-04-26T21:36:23.030Z,40.58
2019-04-26T21:38:52.931Z,38.48
2019-04-26T21:41:21.188Z,37.75
2019-04-26T21:43:47.486Z,35.08
2019-04-26T21:46:18.473Z,35.48
2019-04-26T21:48:44.593Z,37.15
2019-04-26T21:51:14.451Z,34.75
2019-04-26T21:53:42.158Z,31.35
2019-04-26T21:56:07.452Z,29.23
2019-04-26T21:58:35.165Z,34.15
2019-04-26T22:01:03.463Z,32.00
2019-04-26T22:03:30.012Z,30.80
2019-04-26T22:05:56.517Z,32.13
2019-04-26T22:08:25.787Z,28.52
2019-04-26T22:10:53.472Z,30.02
2019-04-26T22:13:29.008Z,34.60
2019-04-26T22:16:29.253Z,33.58
2019-04-26T22:18:50.541Z,28.42
2019-04-26T22:21:28.885Z,32.67
2019-04-26T22:23:58.609Z,36.63
2019-04-26T22:26:24.851Z,37.65
2019-04-26T22:28:51.090Z,40.98
2019-04-26T22:31:17.605Z,43.65
2019-04-26T22:33:44.596Z,43.80
2019-04-26T22:36:13.028Z,45.52
2019-04-26T22:38:39.416Z,45.30
2019-04-26T22:41:05.776Z,47.13
2019-04-26T22:43:44.786Z,47.33
2019-04-26T22:46:26.289Z,49.60
2019-04-26T22:48:54.720Z,47.13
2019-04-26T22:51:16.990Z,45.78
2019-04-26T22:53:43.403Z,42.38
2019-04-26T22:56:09.921Z,38.83
2019-04-26T22:58:36.480Z,43.52
2019-04-26T23:01:06.136Z,45.80
2019-04-26T23:03:31.270Z,49.10
2019-04-26T23:05:57.954Z,47.62
2019-04-26T23:08:24.345Z,45.60
2019-04-26T23:10:53.104Z,48.13
2019-04-26T23:13:41.244Z,50.50
2019-04-26T23:16:11.292Z,50.12
2019-04-26T23:18:53.815Z,49.25
2019-04-26T23:21:25.091Z,49.27
2019-04-26T23:23:51.350Z,51.40
2019-04-26T23:26:17.688Z,50.70
2019-04-26T23:28:44.069Z,51.30
2019-04-26T23:31:10.514Z,47.38
2019-04-26T23:33:36.909Z,50.48
2019-04-26T23:36:03.376Z,43.83
2019-04-26T23:38:36.173Z,44.77
2019-04-26T23:41:01.210Z,50.43
2019-04-26T23:43:26.070Z,45.80
2019-04-26T23:45:53.064Z,50.33
2019-04-26T23:48:19.466Z,51.00
2019-04-26T23:50:45.820Z,47.88
2019-04-26T23:53:13.823Z,49.08
2019-04-26T23:55:43.892Z,50.20
2019-04-26T23:58:10.725Z,49.03
